Time;durP1;ratioP1;P1;durP2;ratioP2;P2;SDS_P1;SDS_P2;PMS_P1;PMS_P2;Temp;Humidity;BMP_temperature;BMP_pressure;BME280_temperature;BME280_humidity;BME280_pressure;Samples;Min_cycle;Max_cycle;Signal;HPM_P1;HPM_P2
2022/02/01 00:00:18;;;;;;;16.48;2.03;;;2.90;99.90;;;;;;5023252;28;20043;-68
2022/02/01 00:02:51;;;;;;;13.10;1.98;;;3.00;99.90;;;;;;5019023;28;20037;-68
2022/02/01 00:05:27;;;;;;;12.48;2.05;;;3.10;99.90;;;;;;5001219;28;20060;-69
2022/02/01 00:19:04;;;;;;;14.35;2.15;;;3.40;99.90;;;;;;5022333;28;20080;-69
2022/02/01 00:35:26;;;;;;;17.10;2.08;;;3.40;99.90;;;;;;5018879;28;20060;-69
2022/02/01 00:38:02;;;;;;;13.77;1.88;;;3.40;99.90;;;;;;5016961;28;20045;-68
2022/02/01 00:40:28;;;;;;;16.48;2.05;;;3.40;99.90;;;;;;5019798;28;20052;-68
2022/02/01 00:42:54;;;;;;;17.35;2.08;;;3.40;99.90;;;;;;5021768;28;20286;-69
2022/02/01 00:45:20;;;;;;;13.65;1.70;;;3.40;99.90;;;;;;5014367;28;20045;-69
2022/02/01 00:47:45;;;;;;;14.93;2.58;;;3.30;99.90;;;;;;5020685;28;20066;-69
2022/02/01 00:50:14;;;;;;;14.75;1.73;;;3.40;99.90;;;;;;5010372;28;20853;-69
2022/02/01 00:52:40;;;;;;;28.00;2.75;;;3.40;99.90;;;;;;5017239;28;20053;-69
2022/02/01 00:55:07;;;;;;;19.77;2.63;;;3.40;99.90;;;;;;5018108;28;20062;-69
2022/02/01 00:57:33;;;;;;;22.67;2.78;;;3.30;99.90;;;;;;5005791;28;20044;-69
2022/02/01 00:59:59;;;;;;;18.92;2.42;;;3.30;99.90;;;;;;5020255;28;20046;-69
2022/02/01 01:02:25;;;;;;;22.67;3.13;;;3.30;99.90;;;;;;5016342;28;20081;-69
2022/02/01 01:04:50;;;;;;;20.65;3.20;;;3.30;99.90;;;;;;5023331;28;20048;-69
2022/02/01 01:07:16;;;;;;;23.00;3.05;;;3.20;99.90;;;;;;5020389;28;20199;-69
2022/02/01 01:09:42;;;;;;;21.90;2.50;;;3.20;99.90;;;;;;5014069;28;20112;-69
2022/02/01 01:12:09;;;;;;;18.27;2.53;;;3.20;99.90;;;;;;5020186;28;20038;-68
2022/02/01 01:43:34;;;;;;;15.98;2.05;;;3.10;99.90;;;;;;5022371;28;20052;-68
2022/02/01 01:44:42;;;;;;;14.30;2.22;;;3.10;99.90;;;;;;5020595;28;20042;-68
2022/02/01 01:55:20;;;;;;;11.25;1.75;;;3.10;99.90;;;;;;5019530;28;20537;-68
2022/02/01 01:57:46;;;;;;;14.38;1.58;;;3.20;99.90;;;;;;5018418;28;20034;-69
2022/02/01 02:00:29;;;;;;;14.48;2.13;;;3.10;99.90;;;;;;5019767;28;20037;-69
2022/02/01 02:02:55;;;;;;;16.75;2.20;;;3.20;99.90;;;;;;5014917;28;20058;-68
2022/02/01 02:05:20;;;;;;;10.30;1.75;;;3.20;99.90;;;;;;5022663;28;20409;-68
2022/02/01 02:07:48;;;;;;;14.25;1.83;;;3.20;99.90;;;;;;5003184;28;20046;-69
2022/02/01 02:10:14;;;;;;;15.68;2.20;;;3.20;99.90;;;;;;5024803;28;20037;-68
2022/02/01 02:13:03;;;;;;;14.50;1.92;;;3.20;99.90;;;;;;5018960;28;20480;-68
2022/02/01 02:15:42;;;;;;;10.77;1.63;;;3.30;99.90;;;;;;5004927;28;20037;-68
2022/02/01 02:18:08;;;;;;;16.10;2.00;;;3.30;99.90;;;;;;5024141;28;20072;-68
2022/02/01 02:20:41;;;;;;;12.57;1.88;;;3.30;99.90;;;;;;5022151;28;20072;-68
2022/02/01 02:23:08;;;;;;;17.48;2.25;;;3.40;99.90;;;;;;5017974;28;20084;-69
2022/02/01 02:25:38;;;;;;;9.80;1.38;;;3.40;99.90;;;;;;5017870;28;20120;-68
2022/02/01 02:28:05;;;;;;;12.77;1.77;;;3.40;99.90;;;;;;5022101;28;20387;-68
2022/02/01 02:30:31;;;;;;;14.95;1.40;;;3.40;99.90;;;;;;5022623;28;20048;-69
2022/02/01 02:33:10;;;;;;;13.23;1.40;;;3.40;99.90;;;;;;5028182;28;20033;-69
2022/02/01 02:35:42;;;;;;;18.08;2.03;;;3.40;99.90;;;;;;5018486;28;20038;-68
2022/02/01 02:38:14;;;;;;;8.07;2.05;;;3.50;99.90;;;;;;5022788;28;20330;-69
2022/02/01 02:45:58;;;;;;;14.10;1.98;;;3.50;99.90;;;;;;5019888;28;20522;-69
2022/02/01 02:48:24;;;;;;;9.93;1.42;;;3.60;99.90;;;;;;5022977;28;20116;-69
2022/02/01 02:50:49;;;;;;;8.88;2.00;;;3.50;99.90;;;;;;5022967;28;20045;-69
2022/02/01 02:53:16;;;;;;;18.60;2.13;;;3.60;99.90;;;;;;5019000;28;20037;-69
2022/02/01 02:55:41;;;;;;;13.95;1.73;;;3.60;99.90;;;;;;5018275;28;20077;-69
2022/02/01 02:58:07;;;;;;;14.00;1.67;;;3.60;99.90;;;;;;5009792;28;20057;-69
2022/02/01 03:00:33;;;;;;;14.00;1.92;;;3.80;99.90;;;;;;5021389;28;20045;-69
2022/02/01 03:02:58;;;;;;;11.80;1.60;;;3.70;99.90;;;;;;5020543;28;20037;-69
2022/02/01 03:05:24;;;;;;;8.90;1.15;;;3.70;99.90;;;;;;5022634;28;20549;-69
2022/02/01 03:07:50;;;;;;;14.70;2.17;;;3.70;99.90;;;;;;5023293;28;20056;-69
2022/02/01 03:10:15;;;;;;;13.10;1.35;;;3.80;99.90;;;;;;5024667;28;20042;-69
2022/02/01 03:20:39;;;;;;;10.20;1.13;;;3.70;99.90;;;;;;5020113;28;20131;-69
2022/02/01 03:23:05;;;;;;;11.40;1.17;;;3.70;99.90;;;;;;5021835;28;20030;-69
2022/02/01 03:25:31;;;;;;;6.57;1.08;;;3.70;99.90;;;;;;5022364;28;20437;-69
2022/02/01 03:27:56;;;;;;;11.40;1.30;;;3.70;99.90;;;;;;5020446;28;20406;-69
2022/02/01 03:30:22;;;;;;;7.72;1.33;;;3.70;99.90;;;;;;5018944;28;20584;-69
2022/02/01 03:32:49;;;;;;;7.47;1.10;;;3.60;99.90;;;;;;5024035;28;20045;-69
2022/02/01 03:35:14;;;;;;;8.68;1.25;;;3.60;99.90;;;;;;5023682;28;20048;-69
2022/02/01 03:37:40;;;;;;;8.35;0.82;;;3.60;99.90;;;;;;5002629;28;20046;-69
2022/02/01 03:40:10;;;;;;;8.65;1.05;;;3.50;99.90;;;;;;5023691;28;20059;-69
2022/02/01 03:42:36;;;;;;;9.25;1.02;;;3.60;99.90;;;;;;5021800;28;20116;-69
2022/02/01 03:45:03;;;;;;;8.60;0.85;;;3.50;99.90;;;;;;5022965;28;20466;-69
2022/02/01 03:47:32;;;;;;;9.35;1.10;;;3.50;99.90;;;;;;5025120;28;20038;-69
2022/02/01 03:49:59;;;;;;;9.68;1.20;;;3.40;99.90;;;;;;5023892;28;20116;-69
2022/02/01 03:52:25;;;;;;;7.38;0.70;;;3.40;99.90;;;;;;5028063;28;20048;-69
2022/02/01 03:54:51;;;;;;;9.10;0.98;;;3.40;99.90;;;;;;5022591;28;20421;-69
2022/02/01 03:57:17;;;;;;;7.43;0.90;;;3.30;99.90;;;;;;5022631;28;20041;-69
2022/02/01 03:59:44;;;;;;;6.13;1.08;;;3.30;99.90;;;;;;5019788;28;20509;-69
2022/02/01 04:02:12;;;;;;;5.50;0.77;;;3.40;99.90;;;;;;5020511;28;20133;-69
2022/02/01 04:04:38;;;;;;;11.25;1.27;;;3.40;99.90;;;;;;5023713;28;20029;-69
2022/02/01 04:07:05;;;;;;;13.00;1.70;;;3.50;99.90;;;;;;5017609;28;20111;-69
2022/02/01 04:09:32;;;;;;;11.10;1.10;;;3.50;99.90;;;;;;5007592;28;20383;-69
2022/02/01 04:12:00;;;;;;;8.80;0.75;;;3.50;99.90;;;;;;5020634;28;20045;-69
2022/02/01 04:14:29;;;;;;;8.68;1.02;;;3.50;99.90;;;;;;5018958;28;20155;-69
2022/02/01 04:16:57;;;;;;;8.07;0.98;;;3.60;99.90;;;;;;5021140;28;20517;-69
2022/02/01 04:19:23;;;;;;;9.95;0.90;;;3.60;99.90;;;;;;5028924;28;20050;-69
2022/02/01 04:21:55;;;;;;;8.65;1.15;;;3.60;99.90;;;;;;5018551;28;20513;-69
2022/02/01 04:24:20;;;;;;;12.68;1.55;;;3.60;99.90;;;;;;5018268;28;20041;-69
2022/02/01 04:26:46;;;;;;;8.07;0.93;;;3.70;99.90;;;;;;5021378;28;20371;-69
2022/02/01 04:29:12;;;;;;;8.32;1.50;;;3.70;99.90;;;;;;5017005;28;20069;-69
2022/02/01 04:31:37;;;;;;;8.95;0.93;;;3.70;99.90;;;;;;5020384;28;20052;-69
2022/02/01 04:34:03;;;;;;;10.77;0.90;;;3.80;99.90;;;;;;5019754;28;20040;-66
2022/02/01 04:36:29;;;;;;;6.72;1.13;;;3.80;99.90;;;;;;5024713;28;20127;-67
2022/02/01 04:38:57;;;;;;;8.25;0.80;;;3.70;99.90;;;;;;5018950;28;20116;-67
2022/02/01 04:41:29;;;;;;;11.20;1.17;;;3.80;99.90;;;;;;5018744;28;20396;-68
2022/02/01 04:43:58;;;;;;;8.65;0.93;;;3.70;99.90;;;;;;5021046;28;20045;-67
2022/02/01 04:46:24;;;;;;;5.88;1.08;;;3.80;99.90;;;;;;5017687;28;20046;-67
2022/02/01 04:48:51;;;;;;;8.18;1.48;;;3.80;99.90;;;;;;5020039;28;20049;-68
2022/02/01 04:51:18;;;;;;;8.85;1.02;;;3.80;99.90;;;;;;5023633;28;20037;-68
2022/02/01 04:53:45;;;;;;;8.55;1.15;;;3.80;99.90;;;;;;5019042;28;20505;-68
2022/02/01 04:56:12;;;;;;;7.10;1.42;;;3.90;99.90;;;;;;5019693;28;20252;-68
2022/02/01 04:58:38;;;;;;;11.00;1.33;;;3.80;99.90;;;;;;5015582;28;20049;-68
2022/02/01 05:01:04;;;;;;;7.45;1.02;;;3.80;99.90;;;;;;5018309;28;20033;-68
2022/02/01 05:03:29;;;;;;;11.43;1.00;;;3.90;99.90;;;;;;5020475;28;20053;-68
2022/02/01 05:05:56;;;;;;;11.73;1.30;;;3.90;99.90;;;;;;5016439;28;20104;-68
2022/02/01 05:08:24;;;;;;;7.90;0.82;;;3.90;99.90;;;;;;5019370;28;20041;-68
2022/02/01 05:10:50;;;;;;;10.90;1.35;;;3.90;99.90;;;;;;5019459;28;20021;-68
2022/02/01 05:16:18;;;;;;;14.77;2.03;;;3.90;99.90;;;;;;5018876;28;20076;-68
2022/02/01 05:18:48;;;;;;;12.02;1.02;;;4.00;99.90;;;;;;5016562;28;20305;-68
2022/02/01 05:21:24;;;;;;;13.00;1.30;;;3.90;99.90;;;;;;5001708;28;20466;-68
2022/02/01 05:23:51;;;;;;;11.80;2.10;;;4.00;99.90;;;;;;5018712;28;20441;-68
2022/02/01 05:26:18;;;;;;;9.48;1.40;;;4.00;99.90;;;;;;5001338;28;20045;-68
2022/02/01 05:28:44;;;;;;;14.45;1.40;;;4.10;99.90;;;;;;5014200;28;20050;-68
2022/02/01 05:31:10;;;;;;;10.75;1.55;;;4.10;99.90;;;;;;5015247;28;20449;-68
2022/02/01 05:33:36;;;;;;;10.48;1.88;;;4.10;99.90;;;;;;5021629;28;20457;-68
2022/02/01 05:36:04;;;;;;;11.73;1.92;;;4.10;99.90;;;;;;5018270;28;20432;-68
2022/02/01 05:38:30;;;;;;;14.02;1.65;;;4.10;99.90;;;;;;5018384;28;20037;-68
2022/02/01 05:40:57;;;;;;;10.00;1.80;;;4.20;99.90;;;;;;5016832;28;20456;-68
2022/02/01 05:43:26;;;;;;;9.05;1.30;;;4.10;99.90;;;;;;5022828;28;20143;-68
2022/02/01 05:45:53;;;;;;;8.32;1.65;;;4.20;99.90;;;;;;5022610;28;20069;-68
2022/02/01 05:48:19;;;;;;;16.80;1.88;;;4.20;99.90;;;;;;5023011;28;20046;-68
2022/02/01 05:50:49;;;;;;;15.50;1.50;;;4.20;99.90;;;;;;5024420;28;20049;-68
2022/02/01 05:53:16;;;;;;;8.35;1.25;;;4.10;99.90;;;;;;5019755;28;20426;-68
2022/02/01 05:55:42;;;;;;;12.05;1.80;;;4.20;99.90;;;;;;5019043;28;20409;-68
2022/02/01 05:58:07;;;;;;;14.23;1.50;;;4.20;99.90;;;;;;5024161;28;20077;-68
2022/02/01 06:00:34;;;;;;;14.50;2.47;;;4.20;99.90;;;;;;5021800;28;20659;-69
2022/02/01 06:03:01;;;;;;;12.18;1.88;;;4.30;99.90;;;;;;5009050;28;20564;-68
2022/02/01 06:05:27;;;;;;;13.07;2.15;;;4.30;99.90;;;;;;5025381;28;20139;-68
2022/02/01 06:07:53;;;;;;;10.88;2.15;;;4.40;99.90;;;;;;5023973;28;20065;-68
2022/02/01 06:10:19;;;;;;;9.32;1.60;;;4.40;99.90;;;;;;5008167;28;20044;-68
2022/02/01 06:12:46;;;;;;;9.70;1.65;;;4.40;99.90;;;;;;5025225;28;20046;-68
2022/02/01 06:15:15;;;;;;;11.25;1.67;;;4.40;99.90;;;;;;5007333;28;20053;-68
2022/02/01 06:17:41;;;;;;;10.70;2.03;;;4.40;99.90;;;;;;5021456;28;20041;-68
2022/02/01 06:20:09;;;;;;;13.23;2.03;;;4.50;99.90;;;;;;5016995;28;20047;-68
2022/02/01 06:22:35;;;;;;;14.00;2.33;;;4.50;99.90;;;;;;5023997;28;20052;-68
2022/02/01 06:25:02;;;;;;;11.48;2.38;;;4.50;99.90;;;;;;5024601;28;20104;-68
2022/02/01 06:27:28;;;;;;;9.52;2.00;;;4.40;99.90;;;;;;5027962;28;20055;-68
2022/02/01 06:29:54;;;;;;;14.13;2.00;;;4.50;99.90;;;;;;5001706;28;20077;-68
2022/02/01 06:32:21;;;;;;;15.57;2.17;;;4.50;99.90;;;;;;5022711;28;20045;-68
2022/02/01 06:34:47;;;;;;;18.98;2.72;;;4.50;99.90;;;;;;5026314;28;20049;-68
2022/02/01 06:37:13;;;;;;;18.15;2.50;;;4.50;99.90;;;;;;5001306;28;20105;-68
2022/02/01 06:39:40;;;;;;;15.80;2.35;;;4.50;99.90;;;;;;5021747;28;20051;-68
2022/02/01 06:42:08;;;;;;;11.73;2.13;;;4.50;99.90;;;;;;5023834;28;20768;-68
2022/02/01 06:44:34;;;;;;;14.57;2.40;;;4.60;99.90;;;;;;5025708;28;20120;-68
2022/02/01 06:47:00;;;;;;;15.55;2.55;;;4.50;99.90;;;;;;5023151;28;20124;-68
2022/02/01 06:49:25;;;;;;;12.23;2.60;;;4.60;99.90;;;;;;5025424;28;20099;-68
2022/02/01 06:51:51;;;;;;;17.80;2.75;;;4.50;99.90;;;;;;5019062;28;20057;-68
2022/02/01 06:54:17;;;;;;;16.42;3.17;;;4.60;99.90;;;;;;5020980;28;20049;-68
2022/02/01 06:56:42;;;;;;;17.65;2.92;;;4.60;99.90;;;;;;5021668;28;20489;-68
2022/02/01 06:59:08;;;;;;;13.88;2.75;;;4.60;99.90;;;;;;5028910;28;20055;-68
2022/02/01 07:01:34;;;;;;;12.77;2.75;;;4.60;99.90;;;;;;5021832;28;20498;-68
2022/02/01 07:04:01;;;;;;;13.90;2.58;;;4.70;99.90;;;;;;5025107;28;20113;-68
2022/02/01 07:06:30;;;;;;;13.77;2.25;;;4.60;99.90;;;;;;5014568;28;20136;-68
2022/02/01 07:08:57;;;;;;;19.75;3.45;;;4.70;99.90;;;;;;5015912;28;20052;-68
2022/02/01 07:11:23;;;;;;;19.98;3.25;;;4.70;99.90;;;;;;5017967;28;20455;-68
2022/02/01 07:13:49;;;;;;;18.35;3.65;;;4.70;99.90;;;;;;5014636;28;20141;-68
2022/02/01 07:16:16;;;;;;;16.55;3.58;;;4.70;99.90;;;;;;5018176;28;20257;-68
2022/02/01 07:18:42;;;;;;;19.98;3.42;;;4.60;99.90;;;;;;5018424;28;20054;-68
2022/02/01 07:21:08;;;;;;;17.83;3.55;;;4.60;99.90;;;;;;5018148;28;20045;-68
2022/02/01 07:23:34;;;;;;;16.98;3.88;;;4.70;99.90;;;;;;5021136;28;20169;-68
2022/02/01 07:26:02;;;;;;;18.33;3.88;;;4.70;99.90;;;;;;5022269;28;20041;-68
2022/02/01 07:28:29;;;;;;;23.08;3.67;;;4.70;99.90;;;;;;5018755;28;20069;-68
2022/02/01 07:30:56;;;;;;;19.33;4.00;;;4.70;99.90;;;;;;5016883;28;20049;-68
2022/02/01 07:33:23;;;;;;;18.60;3.80;;;4.70;99.90;;;;;;5022928;28;20064;-68
2022/02/01 07:35:49;;;;;;;15.68;4.35;;;4.60;99.90;;;;;;5020071;28;20068;-68
2022/02/01 07:38:19;;;;;;;13.48;3.28;;;4.70;99.90;;;;;;5032582;28;20076;-68
2022/02/01 07:40:46;;;;;;;20.27;5.05;;;4.70;99.90;;;;;;5020801;28;20555;-68
2022/02/01 07:43:13;;;;;;;17.20;3.75;;;4.70;99.90;;;;;;5023361;28;20045;-67
2022/02/01 07:45:41;;;;;;;20.88;4.70;;;4.70;99.90;;;;;;5001354;28;20058;-67
2022/02/01 07:48:07;;;;;;;13.57;4.10;;;4.70;99.90;;;;;;5017959;28;20026;-67
2022/02/01 07:50:33;;;;;;;10.90;4.13;;;4.70;99.90;;;;;;5018676;28;20531;-67
2022/02/01 07:52:59;;;;;;;12.38;4.38;;;4.80;99.90;;;;;;5019866;28;20128;-67
2022/02/01 07:55:25;;;;;;;12.15;5.07;;;4.70;99.90;;;;;;4986666;28;1100487;-67
2022/02/01 07:57:51;;;;;;;16.13;4.57;;;4.70;99.90;;;;;;5020533;28;20532;-68
2022/02/01 08:00:17;;;;;;;16.75;5.68;;;4.80;99.90;;;;;;5019310;28;20081;-68
2022/02/01 08:02:43;;;;;;;10.98;4.60;;;4.80;99.90;;;;;;5020011;28;20053;-68
2022/02/01 08:05:11;;;;;;;12.70;5.57;;;4.80;99.90;;;;;;5021761;28;20521;-68
2022/02/01 08:07:38;;;;;;;16.02;5.70;;;4.80;99.90;;;;;;5017722;28;20252;-68
2022/02/01 08:10:08;;;;;;;13.20;5.35;;;4.80;99.90;;;;;;5023936;28;20084;-67
2022/02/01 08:20:57;;;;;;;11.77;4.77;;;4.90;99.90;;;;;;5023810;28;20087;-67
2022/02/01 08:23:23;;;;;;;10.57;5.00;;;5.00;99.90;;;;;;5014135;28;20037;-67
2022/02/01 08:25:50;;;;;;;14.27;5.90;;;4.90;99.90;;;;;;5017309;28;20049;-67
2022/02/01 08:28:17;;;;;;;9.70;4.80;;;5.00;99.90;;;;;;5020716;28;20042;-67
2022/02/01 08:30:43;;;;;;;9.07;5.35;;;5.00;99.90;;;;;;5022167;28;20131;-67
2022/02/01 08:33:09;;;;;;;8.48;5.25;;;5.10;99.90;;;;;;5016952;28;20100;-67
2022/02/01 08:35:35;;;;;;;8.35;5.05;;;5.10;99.90;;;;;;5002031;28;20056;-67
2022/02/01 08:38:01;;;;;;;9.18;5.35;;;5.20;99.90;;;;;;5014743;28;20079;-67
2022/02/01 08:40:27;;;;;;;9.18;5.80;;;5.20;99.90;;;;;;5024462;28;20120;-67
2022/02/01 08:42:52;;;;;;;8.98;6.28;;;5.20;99.90;;;;;;5017840;28;20141;-67
2022/02/01 08:45:25;;;;;;;9.65;5.45;;;5.20;99.90;;;;;;5017359;28;20048;-67
2022/02/01 08:47:53;;;;;;;8.98;6.53;;;5.20;99.90;;;;;;5023021;28;20127;-67
2022/02/01 08:50:24;;;;;;;9.18;6.35;;;5.30;99.90;;;;;;5020947;28;20029;-67
2022/02/01 08:52:51;;;;;;;12.48;6.25;;;5.30;99.90;;;;;;5019904;28;20073;-67
2022/02/01 08:55:33;;;;;;;9.50;6.93;;;5.30;99.90;;;;;;5033512;28;20338;-67
2022/02/01 08:58:00;;;;;;;12.60;7.55;;;5.20;99.90;;;;;;5019400;28;20049;-67
2022/02/01 09:00:26;;;;;;;8.95;7.35;;;5.30;99.90;;;;;;5020355;28;20505;-67
2022/02/01 09:02:52;;;;;;;11.57;7.72;;;5.30;99.90;;;;;;5020864;28;20041;-68
2022/02/01 09:05:18;;;;;;;11.48;7.82;;;5.40;99.90;;;;;;5022929;28;20053;-68
2022/02/01 09:07:44;;;;;;;10.05;8.38;;;5.40;99.90;;;;;;5020618;28;20120;-68
2022/02/01 09:10:10;;;;;;;10.45;7.28;;;5.50;99.90;;;;;;5022884;28;20044;-68
2022/02/01 09:12:36;;;;;;;10.38;7.18;;;5.50;99.90;;;;;;5023122;28;20025;-69
2022/02/01 09:15:02;;;;;;;9.80;7.57;;;5.50;99.90;;;;;;5021688;28;20037;-68
2022/02/01 09:17:27;;;;;;;9.80;7.88;;;5.50;99.90;;;;;;5018139;28;20052;-68
2022/02/01 09:19:53;;;;;;;11.75;7.13;;;5.60;99.90;;;;;;5021302;28;20041;-69
2022/02/01 09:22:20;;;;;;;10.25;7.18;;;5.70;99.90;;;;;;5003430;28;20042;-68
2022/02/01 09:24:47;;;;;;;7.68;6.53;;;5.70;99.90;;;;;;5007912;28;20502;-68
2022/02/01 09:27:13;;;;;;;7.57;5.95;;;5.70;99.90;;;;;;5019191;28;20053;-67
2022/02/01 09:29:39;;;;;;;7.85;6.07;;;5.80;99.90;;;;;;5020970;28;20104;-68
2022/02/01 09:32:06;;;;;;;6.43;5.72;;;5.80;99.90;;;;;;5022072;28;20034;-68
2022/02/01 09:34:32;;;;;;;8.70;6.80;;;5.80;99.90;;;;;;5018988;28;20494;-67
2022/02/01 09:37:00;;;;;;;6.78;5.68;;;5.80;99.90;;;;;;5019924;28;20119;-67
2022/02/01 09:39:26;;;;;;;8.15;5.78;;;5.90;99.90;;;;;;5006404;28;20053;-68
2022/02/01 09:41:53;;;;;;;7.82;6.60;;;5.90;99.90;;;;;;5017167;28;20041;-68
2022/02/01 09:44:20;;;;;;;6.55;5.53;;;5.90;99.90;;;;;;5023765;28;20045;-68
2022/02/01 09:46:49;;;;;;;7.88;5.50;;;6.00;99.90;;;;;;5019636;28;20084;-68
2022/02/01 09:49:16;;;;;;;10.20;5.55;;;6.10;99.90;;;;;;5021657;28;20038;-68
2022/02/01 09:51:46;;;;;;;5.07;4.57;;;6.10;99.90;;;;;;5017439;28;20139;-67
2022/02/01 09:54:12;;;;;;;5.72;3.33;;;6.20;99.90;;;;;;5022213;28;20042;-67
2022/02/01 09:56:38;;;;;;;4.28;2.58;;;6.20;99.90;;;;;;5021101;28;20049;-68
2022/02/01 09:59:21;;;;;;;2.97;2.08;;;6.20;99.90;;;;;;5023861;28;20446;-67
2022/02/01 10:01:54;;;;;;;3.28;1.80;;;6.30;99.90;;;;;;5014397;28;20048;-67
2022/02/01 10:04:26;;;;;;;4.93;1.67;;;6.40;99.90;;;;;;5021521;28;20083;-67
2022/02/01 10:06:51;;;;;;;1.85;1.10;;;6.50;99.90;;;;;;5020642;28;20056;-67
2022/02/01 10:09:17;;;;;;;2.17;1.08;;;6.50;99.90;;;;;;5019513;28;20049;-67
2022/02/01 10:11:45;;;;;;;1.70;0.75;;;6.60;99.90;;;;;;5018350;28;20033;-67
2022/02/01 10:14:26;;;;;;;1.00;0.65;;;6.70;99.90;;;;;;5017614;28;20048;-67
2022/02/01 10:16:54;;;;;;;1.30;1.00;;;6.70;99.90;;;;;;5017956;28;20041;-67
2022/02/01 10:19:22;;;;;;;2.08;0.68;;;6.80;99.90;;;;;;5020674;28;20045;-67
2022/02/01 10:21:57;;;;;;;1.58;0.65;;;6.80;99.90;;;;;;5017814;28;20486;-67
2022/02/01 10:24:30;;;;;;;1.15;0.70;;;6.90;99.90;;;;;;5022004;28;20053;-67
2022/02/01 10:27:09;;;;;;;0.98;0.60;;;6.90;99.90;;;;;;5018438;28;20512;-67
2022/02/01 10:29:38;;;;;;;1.38;0.50;;;6.90;99.90;;;;;;5024280;28;20041;-66
2022/02/01 10:32:25;;;;;;;2.28;0.50;;;6.90;99.90;;;;;;5024884;28;20099;-66
2022/02/01 10:34:52;;;;;;;0.90;0.60;;;7.00;99.90;;;;;;5021387;28;20092;-66
2022/02/01 10:37:24;;;;;;;3.20;0.60;;;7.00;99.90;;;;;;5021127;28;20041;-67
2022/02/01 10:40:00;;;;;;;1.95;0.93;;;7.00;99.90;;;;;;5028071;28;20041;-66
2022/02/01 10:42:27;;;;;;;1.35;0.80;;;7.10;99.90;;;;;;5023447;28;20045;-66
2022/02/01 10:44:55;;;;;;;1.25;0.60;;;7.10;99.90;;;;;;5021078;28;20037;-67
2022/02/01 10:47:34;;;;;;;2.17;0.60;;;7.10;99.90;;;;;;5017478;28;20645;-67
2022/02/01 10:50:13;;;;;;;1.02;0.73;;;7.10;99.90;;;;;;5008258;28;20050;-66
2022/02/01 10:52:44;;;;;;;2.83;0.63;;;7.10;99.90;;;;;;5021065;28;20227;-66
2022/02/01 10:55:11;;;;;;;2.28;0.70;;;7.20;99.90;;;;;;5019845;28;20195;-66
2022/02/01 10:57:37;;;;;;;1.00;0.73;;;7.20;99.90;;;;;;5024241;28;20068;-66
2022/02/01 11:00:08;;;;;;;1.38;0.77;;;7.20;99.90;;;;;;5026703;28;20040;-66
2022/02/01 11:02:42;;;;;;;1.13;0.80;;;7.20;99.90;;;;;;5022591;28;20425;-66
2022/02/01 11:05:18;;;;;;;2.13;1.13;;;7.20;99.90;;;;;;5021941;28;20390;-66
2022/02/01 11:07:49;;;;;;;2.00;0.65;;;7.30;99.90;;;;;;5020571;28;20073;-66
2022/02/01 11:10:15;;;;;;;2.47;0.90;;;7.30;99.90;;;;;;5024515;28;20037;-66
2022/02/01 11:12:41;;;;;;;2.72;1.10;;;7.30;99.90;;;;;;5020149;28;20490;-67
2022/02/01 11:15:18;;;;;;;3.03;1.25;;;7.40;99.90;;;;;;5022363;28;20049;-66
2022/02/01 11:17:46;;;;;;;4.35;1.15;;;7.50;99.90;;;;;;5018735;28;20053;-66
2022/02/01 11:20:12;;;;;;;4.15;1.40;;;7.50;99.90;;;;;;5024972;28;20072;-66
2022/02/01 11:22:41;;;;;;;6.95;1.67;;;7.50;99.90;;;;;;5020053;28;20485;-67
2022/02/01 11:25:21;;;;;;;2.63;1.50;;;7.60;99.90;;;;;;5023106;28;20046;-67
2022/02/01 11:30:39;;;;;;;3.78;1.42;;;7.60;99.90;;;;;;5022420;28;20049;-66
2022/02/01 11:33:07;;;;;;;3.90;1.52;;;7.60;99.90;;;;;;5026633;28;20375;-66
2022/02/01 11:35:33;;;;;;;4.28;1.55;;;7.60;99.90;;;;;;5021117;28;20067;-66
2022/02/01 11:38:03;;;;;;;4.18;1.60;;;7.60;99.90;;;;;;5019135;28;20045;-66
2022/02/01 11:40:38;;;;;;;4.45;1.52;;;7.70;99.90;;;;;;5018443;28;20054;-66
2022/02/01 11:43:09;;;;;;;6.93;1.48;;;7.60;99.90;;;;;;5031967;28;20053;-66
2022/02/01 11:46:04;;;;;;;3.60;1.40;;;7.70;99.90;;;;;;5019910;28;20767;-66
2022/02/01 11:48:32;;;;;;;2.92;1.40;;;7.80;99.90;;;;;;5015855;28;20057;-66
2022/02/01 11:51:12;;;;;;;3.80;1.15;;;7.70;99.90;;;;;;5019955;28;20180;-66
2022/02/01 11:53:44;;;;;;;4.55;1.30;;;7.70;99.90;;;;;;5019881;28;20046;-66
2022/02/01 11:56:17;;;;;;;6.07;1.30;;;7.70;99.90;;;;;;5019207;28;20057;-66
2022/02/01 11:58:47;;;;;;;3.95;1.20;;;7.70;99.90;;;;;;5019619;28;20414;-66
2022/02/01 12:01:31;;;;;;;4.65;1.33;;;7.80;99.90;;;;;;5017952;28;20042;-66
2022/02/01 12:04:05;;;;;;;5.03;1.60;;;7.80;99.90;;;;;;5022927;28;20053;-66
2022/02/01 12:06:54;;;;;;;7.45;2.00;;;7.80;99.90;;;;;;5022094;28;20042;-66
2022/02/01 12:09:21;;;;;;;5.78;2.03;;;7.80;99.90;;;;;;5024626;28;20033;-66
2022/02/01 12:11:54;;;;;;;9.85;2.03;;;7.80;99.90;;;;;;5018988;28;21270;-66
2022/02/01 12:14:20;;;;;;;13.20;2.42;;;7.90;99.90;;;;;;5022470;28;20038;-66
2022/02/01 12:16:49;;;;;;;15.05;2.65;;;7.80;99.90;;;;;;5025103;28;20060;-67
2022/02/01 12:19:43;;;;;;;13.48;2.50;;;7.90;99.90;;;;;;5025954;28;20485;-66
2022/02/01 12:23:00;;;;;;;16.90;3.53;;;7.90;99.90;;;;;;5016085;28;20064;-66
2022/02/01 12:25:26;;;;;;;10.70;2.88;;;7.90;99.90;;;;;;5022477;28;20083;-66
2022/02/01 12:27:52;;;;;;;15.73;3.28;;;7.90;99.90;;;;;;5024034;28;20029;-66
2022/02/01 12:30:19;;;;;;;25.75;3.72;;;7.90;99.90;;;;;;5020892;28;20050;-67
2022/02/01 12:32:54;;;;;;;16.30;3.83;;;7.90;99.90;;;;;;5016933;28;20045;-66
2022/02/01 12:35:34;;;;;;;17.63;3.63;;;8.00;99.90;;;;;;5020766;28;20041;-66
2022/02/01 12:38:17;;;;;;;23.20;3.35;;;8.00;99.90;;;;;;5024503;28;20052;-67
2022/02/01 12:40:43;;;;;;;21.50;3.47;;;8.00;99.90;;;;;;5018991;28;20038;-67
2022/02/01 12:43:14;;;;;;;21.48;3.65;;;8.00;99.90;;;;;;5017450;28;20132;-67
2022/02/01 12:45:51;;;;;;;20.88;3.13;;;8.00;99.90;;;;;;5019032;28;20093;-67
2022/02/01 12:48:19;;;;;;;20.45;2.45;;;8.10;99.90;;;;;;5020887;28;20038;-66
2022/02/01 12:50:55;;;;;;;19.67;3.00;;;8.00;99.90;;;;;;5014231;28;20050;-67
2022/02/01 12:53:21;;;;;;;19.92;2.88;;;8.00;99.90;;;;;;5022454;28;20406;-67
2022/02/01 12:55:47;;;;;;;16.42;2.97;;;8.10;99.90;;;;;;5023539;28;20115;-67
2022/02/01 12:58:17;;;;;;;20.85;3.33;;;8.10;99.90;;;;;;5022736;28;20520;-67
2022/02/01 13:00:49;;;;;;;17.70;2.72;;;8.10;99.90;;;;;;5015259;28;20076;-67
2022/02/01 13:03:14;;;;;;;21.00;3.17;;;8.20;99.90;;;;;;5015840;28;20041;-67
2022/02/01 13:05:40;;;;;;;17.27;2.80;;;8.20;99.90;;;;;;5023347;28;20042;-67
2022/02/01 13:16:25;;;;;;;23.30;2.85;;;8.20;99.90;;;;;;5015999;28;20049;-67
2022/02/01 13:21:34;;;;;;;19.52;3.15;;;8.20;99.90;;;;;;5018087;28;20046;-67
2022/02/01 13:24:00;;;;;;;17.75;3.13;;;8.30;99.90;;;;;;5025695;28;20042;-67
2022/02/01 13:26:28;;;;;;;20.73;2.50;;;8.30;99.90;;;;;;5024476;28;20047;-67
2022/02/01 13:29:00;;;;;;;18.80;2.50;;;8.30;99.90;;;;;;5021072;28;20052;-67
2022/02/01 13:31:29;;;;;;;17.80;2.47;;;8.40;99.90;;;;;;5018538;28;20104;-67
2022/02/01 13:34:01;;;;;;;24.63;3.83;;;8.40;99.90;;;;;;5023020;28;20046;-67
2022/02/01 13:36:27;;;;;;;19.58;2.65;;;8.40;99.90;;;;;;5018871;28;20052;-67
2022/02/01 13:38:56;;;;;;;19.40;3.03;;;8.40;99.90;;;;;;5018502;28;20033;-67
2022/02/01 13:41:29;;;;;;;19.27;2.65;;;8.50;99.90;;;;;;5027150;28;20441;-67
2022/02/01 13:43:58;;;;;;;18.67;3.05;;;8.50;99.90;;;;;;5019957;28;20057;-67
2022/02/01 13:46:30;;;;;;;18.77;2.53;;;8.50;99.90;;;;;;5022236;28;20030;-68
2022/02/01 13:49:06;;;;;;;14.05;2.20;;;8.50;99.90;;;;;;5022019;28;20041;-67
2022/02/01 13:51:47;;;;;;;18.10;2.50;;;8.50;99.90;;;;;;5017067;28;20056;-68
2022/02/01 13:54:13;;;;;;;21.17;2.88;;;8.50;99.90;;;;;;5024523;28;20194;-68
2022/02/01 13:56:46;;;;;;;13.13;2.20;;;8.60;99.90;;;;;;5022846;28;20474;-67
2022/02/01 13:59:22;;;;;;;18.52;2.58;;;8.60;99.90;;;;;;5019214;28;20544;-67
2022/02/01 14:01:58;;;;;;;18.98;3.25;;;8.60;99.90;;;;;;5024459;28;20040;-67
2022/02/01 14:04:29;;;;;;;17.13;2.65;;;8.60;99.90;;;;;;5024942;28;20053;-67
2022/02/01 14:10:06;;;;;;;19.83;3.58;;;8.60;99.90;;;;;;5017854;28;20088;-68
2022/02/01 14:26:37;;;;;;;24.20;3.47;;;8.50;99.90;;;;;;5021283;28;20053;-68
2022/02/01 14:29:06;;;;;;;27.63;4.18;;;8.50;99.90;;;;;;5025712;28;20076;-68
2022/02/01 14:34:19;;;;;;;19.17;3.63;;;8.50;99.90;;;;;;5023911;28;20073;-66
2022/02/01 14:36:48;;;;;;;24.33;3.72;;;8.50;99.90;;;;;;5023608;28;20092;-66
2022/02/01 14:42:54;;;;;;;24.58;3.30;;;8.50;99.90;;;;;;5023145;28;20133;-67
2022/02/01 14:44:50;;;;;;;23.17;3.78;;;8.50;99.90;;;;;;5025802;28;20401;-68
2022/02/01 14:47:22;;;;;;;15.10;2.85;;;8.50;99.90;;;;;;5021676;28;20030;-66
2022/02/01 14:49:50;;;;;;;22.38;3.15;;;8.50;99.90;;;;;;5023885;28;20049;-66
2022/02/01 14:52:17;;;;;;;21.95;3.70;;;8.50;99.90;;;;;;5021203;28;20717;-67
2022/02/01 14:54:47;;;;;;;28.17;4.13;;;8.60;99.90;;;;;;5022228;28;20743;-67
2022/02/01 15:11:24;;;;;;;25.00;4.57;;;8.50;99.90;;;;;;5021378;28;20209;-67
2022/02/01 15:13:30;;;;;;;23.92;3.95;;;8.50;99.90;;;;;;5023142;28;20052;-67